Time;durP1;ratioP1;P1;durP2;ratioP2;P2;SDS_P1;SDS_P2;PMS_P1;PMS_P2;Temp;Humidity;BMP_temperature;BMP_pressure;BME280_temperature;BME280_humidity;BME280_pressure;Samples;Min_cycle;Max_cycle;Signal;HPM_P1;HPM_P2
2022/09/18 00:02:40;;;;;;;5.97;3.10;;;;;10.90;101305.00;;;;13069608;22;20191;-78
2022/09/18 00:07:41;;;;;;;12.03;3.37;;;;;10.80;101296.00;;;;13043568;22;20180;-78
2022/09/18 00:12:43;;;;;;;9.27;2.93;;;;;10.80;101306.00;;;;13049246;22;20171;-78
2022/09/18 00:17:44;;;;;;;9.43;3.00;;;;;10.70;101300.00;;;;13045224;22;20168;-78
2022/09/18 00:22:46;;;;;;;8.70;3.10;;;;;10.60;101282.00;;;;13065825;22;20661;-78
2022/09/18 00:27:47;;;;;;;13.17;3.20;;;;;10.50;101289.00;;;;13049795;22;20875;-78
2022/09/18 00:32:48;;;;;;;8.07;3.47;;;;;10.40;101292.00;;;;13049338;22;20502;-77
2022/09/18 00:37:49;;;;;;;14.57;3.63;;;;;10.30;101287.00;;;;13026034;22;20498;-78
2022/09/18 00:42:50;;;;;;;11.37;3.00;;;;;10.30;101281.00;;;;13047169;22;20183;-78
2022/09/18 00:47:52;;;;;;;11.20;3.60;;;;;10.40;101286.00;;;;13003478;22;20175;-78
2022/09/18 00:52:58;;;;;;;8.90;3.47;;;;;10.40;101288.00;;;;13000115;22;20254;-78
2022/09/18 00:58:04;;;;;;;7.07;2.90;;;;;10.40;101296.00;;;;13128259;22;20172;-78
2022/09/18 01:03:05;;;;;;;16.23;3.03;;;;;10.40;101297.00;;;;13029657;22;20195;-78
2022/09/18 01:08:13;;;;;;;7.20;2.90;;;;;10.40;101295.00;;;;13090040;22;20883;-76
2022/09/18 01:13:33;;;;;;;9.60;2.57;;;;;10.50;101295.00;;;;13039849;22;20168;-76
2022/09/18 01:19:04;;;;;;;8.87;2.87;;;;;10.40;101291.00;;;;13042157;22;20183;-76
2022/09/18 01:24:37;;;;;;;14.67;3.33;;;;;10.30;101283.00;;;;13016205;22;20206;-76
2022/09/18 01:30:06;;;;;;;12.77;3.80;;;;;10.20;101283.00;;;;13010714;22;20178;-76
2022/09/18 01:35:23;;;;;;;6.17;2.83;;;;;10.00;101282.00;;;;13087663;22;20250;-76
2022/09/18 01:40:49;;;;;;;9.50;3.60;;;;;10.00;101278.00;;;;13039758;22;20159;-76
2022/09/18 01:45:55;;;;;;;8.80;3.43;;;;;9.90;101270.00;;;;13040295;22;20195;-76
2022/09/18 01:51:12;;;;;;;15.30;4.50;;;;;9.90;101269.00;;;;13062736;22;20187;-76
2022/09/18 01:56:37;;;;;;;6.03;3.03;;;;;9.80;101263.00;;;;13062286;22;20167;-76
2022/09/18 02:01:43;;;;;;;6.43;3.37;;;;;9.70;101261.00;;;;13039656;22;20226;-75
2022/09/18 02:06:55;;;;;;;8.63;3.70;;;;;9.60;101258.00;;;;13061471;22;20170;-76
2022/09/18 02:11:58;;;;;;;11.00;3.30;;;;;9.60;101252.00;;;;13060753;22;20645;-76
2022/09/18 02:17:07;;;;;;;13.10;3.53;;;;;9.60;101237.00;;;;13088075;22;20163;-75
2022/09/18 02:22:14;;;;;;;9.80;3.03;;;;;9.50;101235.00;;;;13013550;22;20703;-76
2022/09/18 02:27:16;;;;;;;8.00;3.23;;;;;9.50;101239.00;;;;13039740;22;20174;-76
2022/09/18 02:32:18;;;;;;;12.53;3.67;;;;;9.50;101239.00;;;;13013679;22;20229;-76
2022/09/18 02:38:04;;;;;;;6.63;3.00;;;;;9.50;101226.00;;;;13065447;22;20633;-75
2022/09/18 02:43:20;;;;;;;13.87;3.30;;;;;9.50;101231.00;;;;13030694;22;20542;-75
2022/09/18 02:48:48;;;;;;;8.80;3.03;;;;;9.50;101236.00;;;;13034398;22;20155;-75
2022/09/18 02:53:56;;;;;;;6.53;2.67;;;;;9.50;101239.00;;;;12982941;22;20186;-76
2022/09/18 02:59:05;;;;;;;9.00;3.23;;;;;9.50;101232.00;;;;13038515;22;20225;-75
2022/09/18 03:04:13;;;;;;;8.67;3.07;;;;;9.50;101242.00;;;;13014463;22;20600;-75
2022/09/18 03:09:36;;;;;;;7.20;3.20;;;;;9.50;101229.00;;;;13013891;22;20191;-75
2022/09/18 03:14:37;;;;;;;9.00;3.07;;;;;9.50;101225.00;;;;13059718;22;20234;-76
2022/09/18 03:19:39;;;;;;;5.97;3.47;;;;;9.40;101230.00;;;;13039831;22;20167;-76
2022/09/18 03:24:41;;;;;;;5.30;3.20;;;;;9.40;101221.00;;;;13040471;22;20187;-76
2022/09/18 03:29:44;;;;;;;9.60;4.03;;;;;9.50;101228.00;;;;13038978;22;20682;-76
2022/09/18 03:34:45;;;;;;;7.00;3.50;;;;;9.50;101222.00;;;;13041160;22;20167;-76
2022/09/18 03:39:47;;;;;;;8.00;4.00;;;;;9.60;101221.00;;;;13061116;22;20622;-76
2022/09/18 03:44:48;;;;;;;9.90;3.83;;;;;9.60;101212.00;;;;13114995;22;20225;-76
2022/09/18 03:49:54;;;;;;;8.87;4.20;;;;;9.60;101223.00;;;;13066420;22;20178;-76
2022/09/18 03:54:56;;;;;;;8.13;3.53;;;;;9.70;101228.00;;;;12990488;22;20180;-76
2022/09/18 04:00:16;;;;;;;9.10;3.93;;;;;9.70;101266.00;;;;13066645;22;20206;-76
2022/09/18 04:05:17;;;;;;;7.07;3.70;;;;;9.70;101250.00;;;;13038663;22;20274;-76
2022/09/18 04:10:50;;;;;;;6.87;3.77;;;;;9.70;101243.00;;;;13067106;22;20191;-76
2022/09/18 04:15:51;;;;;;;6.07;3.20;;;;;9.70;101239.00;;;;13041513;22;20175;-76
2022/09/18 04:20:53;;;;;;;10.67;3.80;;;;;9.70;101227.00;;;;13036604;22;20170;-76
2022/09/18 04:25:54;;;;;;;9.37;3.87;;;;;9.70;101224.00;;;;13087678;22;20213;-76
2022/09/18 04:30:59;;;;;;;6.33;3.83;;;;;9.70;101219.00;;;;13038896;22;20542;-76
2022/09/18 04:36:01;;;;;;;9.27;3.97;;;;;9.70;101213.00;;;;13014961;22;20175;-76
2022/09/18 04:41:02;;;;;;;8.20;3.57;;;;;9.70;101217.00;;;;13062915;22;20163;-76
2022/09/18 04:46:05;;;;;;;10.17;3.63;;;;;9.70;101207.00;;;;13036780;22;20194;-76
2022/09/18 04:51:06;;;;;;;8.30;4.27;;;;;9.70;101205.00;;;;13040220;22;20168;-76
2022/09/18 04:56:20;;;;;;;8.63;4.30;;;;;9.60;101194.00;;;;13038012;22;20198;-76
2022/09/18 05:01:24;;;;;;;6.23;4.40;;;;;9.50;101199.00;;;;13062151;22;20164;-76
2022/09/18 05:06:25;;;;;;;7.47;4.57;;;;;9.50;101202.00;;;;13061503;22;20160;-76
2022/09/18 05:11:27;;;;;;;14.97;5.03;;;;;9.50;101204.00;;;;13061904;22;20187;-76
2022/09/18 05:16:29;;;;;;;11.90;4.60;;;;;9.50;101204.00;;;;13063016;22;20159;-76
2022/09/18 05:21:49;;;;;;;10.77;4.97;;;;;9.50;101201.00;;;;13044645;22;20237;-76
2022/09/18 05:26:52;;;;;;;5.87;4.13;;;;;9.60;101200.00;;;;13061857;22;20160;-76
2022/09/18 05:31:56;;;;;;;6.83;4.30;;;;;9.60;101205.00;;;;13061489;22;20775;-76
2022/09/18 05:36:57;;;;;;;4.83;4.17;;;;;9.60;101221.00;;;;13040656;22;20554;-76
2022/09/18 05:41:58;;;;;;;12.90;4.90;;;;;9.60;101221.00;;;;13040283;22;20278;-76
2022/09/18 05:47:00;;;;;;;7.30;4.17;;;;;9.60;101215.00;;;;13036668;22;20172;-75
2022/09/18 05:52:01;;;;;;;8.93;4.00;;;;;9.60;101213.00;;;;13034844;22;20372;-75
2022/09/18 05:57:04;;;;;;;6.47;3.50;;;;;9.70;101208.00;;;;13107973;22;20194;-75
2022/09/18 06:02:09;;;;;;;7.00;4.30;;;;;9.70;101209.00;;;;13085322;22;20182;-75
2022/09/18 06:07:49;;;;;;;8.00;4.00;;;;;9.80;101205.00;;;;13084691;22;20183;-76
2022/09/18 06:13:01;;;;;;;9.17;4.73;;;;;9.90;101206.00;;;;13059391;22;20167;-75
2022/09/18 06:18:04;;;;;;;9.73;4.17;;;;;9.90;101209.00;;;;13059976;22;20344;-76
2022/09/18 06:23:07;;;;;;;5.57;3.40;;;;;10.00;101203.00;;;;13060709;22;20246;-76
2022/09/18 06:28:19;;;;;;;9.27;3.37;;;;;10.10;101191.00;;;;13014301;22;20321;-76
2022/09/18 06:33:20;;;;;;;6.33;3.23;;;;;10.30;101200.00;;;;13034268;22;20175;-75
2022/09/18 06:38:22;;;;;;;4.67;3.10;;;;;10.40;101209.00;;;;13012495;22;20199;-75
2022/09/18 06:43:25;;;;;;;7.07;3.10;;;;;10.60;101202.00;;;;13012785;22;20195;-75
2022/09/18 06:48:48;;;;;;;4.87;3.07;;;;;11.00;101194.00;;;;13011204;22;20795;-75
2022/09/18 06:53:49;;;;;;;4.50;3.00;;;;;11.20;101193.00;;;;13013379;22;20175;-75
2022/09/18 06:58:53;;;;;;;4.33;2.40;;;;;11.40;101186.00;;;;12990460;22;20171;-75
2022/09/18 07:03:55;;;;;;;5.90;2.43;;;;;11.60;101188.00;;;;13040044;22;20253;-75
2022/09/18 07:08:59;;;;;;;4.13;2.43;;;;;11.80;101192.00;;;;13087127;22;20183;-75
2022/09/18 07:14:34;;;;;;;4.83;3.17;;;;;12.00;101177.00;;;;13041124;22;20175;-75
2022/09/18 07:19:45;;;;;;;5.97;2.73;;;;;12.10;101180.00;;;;13039573;22;20167;-75
2022/09/18 07:24:49;;;;;;;8.83;2.50;;;;;12.20;101181.00;;;;13087353;22;20384;-74
2022/09/18 07:29:50;;;;;;;5.90;2.43;;;;;12.30;101169.00;;;;13061842;22;20163;-74
2022/09/18 07:34:53;;;;;;;5.63;2.00;;;;;12.30;101176.00;;;;13012010;22;20745;-74
2022/09/18 07:40:06;;;;;;;3.20;2.60;;;;;12.50;101185.00;;;;13016916;22;20199;-74
2022/09/18 07:45:26;;;;;;;3.80;2.33;;;;;12.50;101188.00;;;;13116655;22;20218;-74
2022/09/18 07:50:29;;;;;;;4.20;2.20;;;;;12.70;101192.00;;;;13041142;22;20641;-74
2022/09/18 07:55:33;;;;;;;4.57;2.10;;;;;12.70;101192.00;;;;13060700;22;20314;-74
2022/09/18 08:00:35;;;;;;;3.87;2.03;;;;;12.70;101191.00;;;;13085442;22;20231;-74
2022/09/18 08:05:38;;;;;;;3.57;1.90;;;;;12.70;101192.00;;;;13040489;22;20859;-75
2022/09/18 08:10:43;;;;;;;4.40;2.30;;;;;12.60;101202.00;;;;13039984;22;20696;-74
2022/09/18 08:16:08;;;;;;;7.03;2.13;;;;;12.60;101201.00;;;;13047768;22;20558;-75
2022/09/18 08:21:42;;;;;;;4.80;2.20;;;;;12.80;101204.00;;;;13054351;22;20255;-75
2022/09/18 08:26:46;;;;;;;4.17;1.90;;;;;13.10;101197.00;;;;13064597;22;20233;-74
2022/09/18 08:31:47;;;;;;;2.80;1.80;;;;;13.60;101197.00;;;;13082449;22;20167;-75
2022/09/18 08:36:50;;;;;;;6.77;2.20;;;;;14.30;101201.00;;;;13087600;22;20166;-75
2022/09/18 08:42:06;;;;;;;3.50;2.40;;;;;15.00;101191.00;;;;13014516;22;20586;-75
2022/09/18 08:47:19;;;;;;;5.78;2.28;;;;;15.40;101206.00;;;;13012453;22;20503;-75
2022/09/18 08:52:27;;;;;;;4.88;1.92;;;;;15.70;101200.00;;;;13087014;22;20167;-75
2022/09/18 08:57:45;;;;;;;3.20;2.50;;;;;16.10;101213.00;;;;13111658;22;20159;-76
2022/09/18 09:03:25;;;;;;;3.60;1.92;;;;;16.00;101220.00;;;;13067316;22;20198;-76
2022/09/18 09:08:32;;;;;;;3.88;1.80;;;;;15.70;101214.00;;;;13037742;22;20806;-75
2022/09/18 09:14:22;;;;;;;4.10;1.83;;;;;15.80;101211.00;;;;13060795;22;20622;-76
2022/09/18 09:20:05;;;;;;;3.58;1.75;;;;;16.80;101199.00;;;;13019962;22;20356;-76
2022/09/18 09:25:12;;;;;;;4.18;1.85;;;;;17.70;101214.00;;;;13040168;22;20195;-76
2022/09/18 09:30:21;;;;;;;4.68;1.60;;;;;18.20;101210.00;;;;13015126;22;20179;-76
2022/09/18 09:35:49;;;;;;;2.53;1.58;;;;;18.40;101225.00;;;;13044064;22;20175;-76
2022/09/18 09:40:53;;;;;;;4.70;1.83;;;;;18.20;101216.00;;;;13010383;22;20171;-76
2022/09/18 09:46:01;;;;;;;2.78;1.40;;;;;18.00;101211.00;;;;13037594;22;20199;-76
2022/09/18 09:51:18;;;;;;;4.90;1.65;;;;;18.00;101222.00;;;;13012204;22;20500;-76
2022/09/18 09:56:42;;;;;;;1.88;1.33;;;;;18.00;101221.00;;;;13009764;22;20526;-76
2022/09/18 10:02:09;;;;;;;3.92;1.60;;;;;18.20;101198.00;;;;12983327;22;20171;-76
2022/09/18 10:07:22;;;;;;;2.35;1.60;;;;;18.30;101199.00;;;;13014145;22;20552;-76
2022/09/18 10:12:38;;;;;;;3.40;1.45;;;;;18.20;101203.00;;;;13036211;22;20179;-76
2022/09/18 10:17:41;;;;;;;6.80;1.67;;;;;18.30;101193.00;;;;13033552;22;20171;-76
2022/09/18 10:22:45;;;;;;;5.30;1.90;;;;;18.60;101181.00;;;;13054967;22;20236;-76
2022/09/18 10:27:46;;;;;;;3.40;1.50;;;;;18.50;101187.00;;;;13083177;22;20163;-76
2022/09/18 10:32:48;;;;;;;4.28;1.48;;;;;18.40;101184.00;;;;12984546;22;20186;-76
2022/09/18 10:37:56;;;;;;;3.78;1.40;;;;;18.40;101183.00;;;;13037447;22;20179;-76
2022/09/18 10:43:05;;;;;;;2.88;1.40;;;;;18.10;101192.00;;;;13010534;22;20249;-76
2022/09/18 10:48:15;;;;;;;7.07;1.65;;;;;18.20;101194.00;;;;13054962;22;20609;-75
2022/09/18 10:53:23;;;;;;;3.83;1.25;;;;;18.30;101190.00;;;;13015401;22;20207;-76
2022/09/18 10:58:28;;;;;;;6.05;1.60;;;;;18.70;101179.00;;;;13054416;22;20728;-76
2022/09/18 11:03:58;;;;;;;4.00;1.88;;;;;18.60;101185.00;;;;13081997;22;20215;-76
2022/09/18 11:09:08;;;;;;;2.03;1.48;;;;;18.20;101194.00;;;;13081556;22;20187;-76
2022/09/18 11:14:24;;;;;;;2.13;1.40;;;;;18.10;101189.00;;;;12983770;22;20213;-76
2022/09/18 11:19:37;;;;;;;3.78;1.52;;;;;18.10;101182.00;;;;13012421;22;20170;-76
2022/09/18 11:24:47;;;;;;;3.42;1.30;;;;;18.20;101175.00;;;;13054749;22;20187;-76
2022/09/18 11:29:48;;;;;;;2.53;1.38;;;;;18.80;101174.00;;;;13032712;22;20264;-75
2022/09/18 11:34:54;;;;;;;4.10;1.27;;;;;19.30;101171.00;;;;13055412;22;20852;-76
2022/09/18 11:40:06;;;;;;;3.90;1.17;;;;;20.20;101165.00;;;;13032869;22;20164;-75
2022/09/18 11:45:49;;;;;;;4.28;1.23;;;;;20.80;101183.00;;;;13011829;22;20289;-76
2022/09/18 11:51:00;;;;;;;2.38;1.27;;;;;20.00;101185.00;;;;13087230;22;20299;-76
2022/09/18 11:56:11;;;;;;;4.28;1.38;;;;;19.00;101161.00;;;;13056467;22;20167;-76
2022/09/18 12:01:40;;;;;;;1.10;0.60;;;;;18.60;101166.00;;;;13036022;22;20176;-76
2022/09/18 12:07:15;;;;;;;2.60;0.82;;;;;19.50;101174.00;;;;12988397;22;20205;-76
2022/09/18 12:12:23;;;;;;;2.25;0.80;;;;;19.90;101178.00;;;;12986487;22;20304;-76
2022/09/18 12:17:41;;;;;;;3.17;0.68;;;;;20.40;101164.00;;;;13085925;22;20187;-76
2022/09/18 12:22:48;;;;;;;2.63;0.77;;;;;19.60;101172.00;;;;13086828;22;20650;-76
2022/09/18 12:28:28;;;;;;;1.17;0.77;;;;;18.50;101157.00;;;;13110510;22;20160;-76
2022/09/18 12:33:57;;;;;;;1.15;0.73;;;;;17.70;101171.00;;;;13005465;22;20172;-76
2022/09/18 12:39:17;;;;;;;1.13;0.80;;;;;17.80;101173.00;;;;12986416;22;20201;-76
2022/09/18 12:44:41;;;;;;;1.58;0.60;;;;;18.20;101164.00;;;;13038008;22;20222;-76
2022/09/18 12:50:13;;;;;;;1.95;0.88;;;;;19.00;101132.00;;;;13038117;22;20184;-76
2022/09/18 12:55:45;;;;;;;0.93;0.70;;;;;18.20;101158.00;;;;13057947;22;20835;-77
2022/09/18 13:00:49;;;;;;;1.27;0.90;;;;;16.80;101172.00;;;;13114438;22;20163;-77
2022/09/18 13:06:00;;;;;;;2.25;0.82;;;;;16.60;101163.00;;;;13010132;22;20202;-76
2022/09/18 13:11:09;;;;;;;2.28;1.25;;;;;17.30;101164.00;;;;13059265;22;20179;-76
2022/09/18 13:16:16;;;;;;;3.50;0.70;;;;;17.40;101161.00;;;;13034949;22;20175;-76
2022/09/18 13:21:27;;;;;;;3.28;1.02;;;;;16.80;101164.00;;;;13085079;22;20163;-76
2022/09/18 13:26:31;;;;;;;1.40;0.65;;;;;16.90;101154.00;;;;13037928;22;20199;-76
2022/09/18 13:31:34;;;;;;;1.35;0.85;;;;;17.10;101149.00;;;;13037565;22;20709;-76
2022/09/18 13:36:39;;;;;;;0.98;0.60;;;;;17.70;101141.00;;;;13058637;22;20595;-76
2022/09/18 13:41:43;;;;;;;0.88;0.40;;;;;18.70;101139.00;;;;13085036;22;20288;-76
2022/09/18 13:46:45;;;;;;;1.35;0.70;;;;;18.30;101131.00;;;;13059233;22;20163;-77
2022/09/18 13:51:47;;;;;;;1.65;0.60;;;;;18.10;101133.00;;;;13032752;22;20164;-76
2022/09/18 13:57:01;;;;;;;1.17;0.77;;;;;18.20;101128.00;;;;13038755;22;20178;-77
2022/09/18 14:02:03;;;;;;;0.88;0.60;;;;;19.40;101110.00;;;;13037048;22;20176;-76
2022/09/18 14:07:17;;;;;;;0.85;0.60;;;;;22.40;101093.00;;;;13057615;22;20164;-76
2022/09/18 14:12:19;;;;;;;2.17;0.50;;;;;20.70;101112.00;;;;13087570;22;20246;-76
2022/09/18 14:17:20;;;;;;;0.88;0.73;;;;;18.50;101127.00;;;;13061116;22;20167;-76
2022/09/18 14:22:30;;;;;;;1.13;0.70;;;;;17.60;101130.00;;;;13083943;22;20202;-76
2022/09/18 14:27:42;;;;;;;2.45;0.95;;;;;17.10;101124.00;;;;13039387;22;20179;-76
2022/09/18 14:33:04;;;;;;;2.05;0.85;;;;;17.20;101114.00;;;;12988715;22;20494;-76
2022/09/18 14:38:36;;;;;;;1.42;0.68;;;;;17.60;101093.00;;;;13057881;22;20168;-76
2022/09/18 14:43:39;;;;;;;1.60;0.57;;;;;17.50;101103.00;;;;13017151;22;20699;-76
2022/09/18 14:48:40;;;;;;;1.77;0.70;;;;;17.60;101105.00;;;;13085039;22;20174;-75
2022/09/18 14:53:44;;;;;;;0.93;0.80;;;;;17.70;101094.00;;;;13035371;22;20175;-76
2022/09/18 14:58:49;;;;;;;2.15;0.80;;;;;17.60;101103.00;;;;13060101;22;20174;-76
2022/09/18 15:03:52;;;;;;;1.00;0.70;;;;;17.30;101060.00;;;;13081162;22;20578;-76
2022/09/18 15:08:55;;;;;;;0.80;0.70;;;;;16.90;101090.00;;;;13072483;22;20307;-75
2022/09/18 15:13:57;;;;;;;0.60;0.60;;;;;16.70;101085.00;;;;13057617;22;20160;-75
2022/09/18 15:19:16;;;;;;;3.40;0.70;;;;;16.50;101080.00;;;;13035002;22;20167;-76
2022/09/18 15:24:20;;;;;;;4.70;1.20;;;;;16.30;101085.00;;;;12986173;22;20195;-76
2022/09/18 15:29:36;;;;;;;3.08;1.00;;;;;16.00;101087.00;;;;13014800;22;20759;-76
2022/09/18 15:34:45;;;;;;;3.08;0.82;;;;;15.40;101104.00;;;;13013313;22;20562;-76
2022/09/18 15:40:04;;;;;;;7.43;1.45;;;;;14.70;101104.00;;;;13059810;22;20164;-75
2022/09/18 15:45:05;;;;;;;2.75;1.10;;;;;13.70;101109.00;;;;13013059;22;20205;-75
2022/09/18 15:50:16;;;;;;;2.33;0.83;;;;;13.20;101131.00;;;;12985267;22;20163;-75
2022/09/18 15:55:25;;;;;;;2.47;0.97;;;;;12.80;101148.00;;;;13013593;22;21007;-76
2022/09/18 16:00:35;;;;;;;2.43;1.20;;;;;12.60;101139.00;;;;13013793;22;20171;-74
2022/09/18 16:05:52;;;;;;;1.90;1.10;;;;;12.60;101143.00;;;;13085684;22;20191;-74
2022/09/18 16:10:56;;;;;;;2.67;1.47;;;;;12.70;101123.00;;;;13038230;22;20192;-74
2022/09/18 16:16:10;;;;;;;3.17;1.60;;;;;12.70;101120.00;;;;13033998;22;20203;-74
2022/09/18 16:21:16;;;;;;;3.67;1.70;;;;;12.70;101110.00;;;;13007889;22;20662;-75
2022/09/18 16:26:29;;;;;;;3.77;2.00;;;;;12.80;101108.00;;;;13060225;22;20316;-74
2022/09/18 16:31:36;;;;;;;4.87;1.60;;;;;13.10;101100.00;;;;12981972;22;20228;-74
2022/09/18 16:36:40;;;;;;;5.40;1.50;;;;;13.10;101091.00;;;;13084576;22;20232;-74
2022/09/18 16:41:42;;;;;;;3.30;1.43;;;;;13.00;101081.00;;;;13012549;22;20599;-74
2022/09/18 16:46:53;;;;;;;2.97;1.57;;;;;12.80;101090.00;;;;13084632;22;20622;-75
2022/09/18 16:51:56;;;;;;;3.70;1.40;;;;;12.60;101089.00;;;;13036436;22;20171;-75
2022/09/18 16:57:09;;;;;;;5.67;1.50;;;;;12.50;101100.00;;;;13111770;22;20174;-76
2022/09/18 17:02:13;;;;;;;5.67;1.90;;;;;12.50;101106.00;;;;13038261;22;20177;-75
2022/09/18 17:07:14;;;;;;;2.87;1.27;;;;;12.50;101104.00;;;;13061157;22;20214;-74
2022/09/18 17:12:15;;;;;;;5.60;1.30;;;;;12.60;101112.00;;;;13085923;22;20521;-75
2022/09/18 17:17:17;;;;;;;5.83;1.57;;;;;12.60;101104.00;;;;13061354;22;20167;-74
2022/09/18 17:22:18;;;;;;;6.00;1.70;;;;;12.50;101140.00;;;;13037912;22;20291;-76
2022/09/18 17:27:24;;;;;;;4.07;1.00;;;;;12.00;101142.00;;;;13059721;22;20164;-74
2022/09/18 17:32:25;;;;;;;3.17;1.20;;;;;11.60;101142.00;;;;13053140;22;20280;-74
2022/09/18 17:37:28;;;;;;;4.20;1.10;;;;;11.50;101159.00;;;;13054466;22;20506;-74
2022/09/18 17:42:29;;;;;;;6.40;1.10;;;;;11.50;101159.00;;;;13003565;22;20267;-74
2022/09/18 17:47:31;;;;;;;3.50;1.03;;;;;11.50;101162.00;;;;13058279;22;20246;-74
2022/09/18 17:52:34;;;;;;;3.97;1.10;;;;;11.50;101155.00;;;;13080218;22;20167;-74
2022/09/18 17:57:37;;;;;;;2.13;1.10;;;;;11.50;101159.00;;;;13081519;22;20165;-74
2022/09/18 18:02:38;;;;;;;3.30;1.00;;;;;11.50;101172.00;;;;13031954;22;20873;-74
2022/09/18 18:07:39;;;;;;;3.40;1.20;;;;;11.50;101164.00;;;;13057304;22;20740;-74
2022/09/18 18:12:40;;;;;;;2.87;1.10;;;;;11.40;101183.00;;;;13032669;22;20181;-74
2022/09/18 18:17:41;;;;;;;1.90;0.67;;;;;11.30;101208.00;;;;13053986;22;20250;-75
2022/09/18 18:22:43;;;;;;;1.53;0.70;;;;;11.20;101235.00;;;;13034048;22;20282;-75
2022/09/18 18:27:44;;;;;;;2.13;1.03;;;;;11.10;101234.00;;;;13055948;22;20242;-76
2022/09/18 18:32:46;;;;;;;1.67;0.90;;;;;11.10;101251.00;;;;13054765;22;20167;-75
2022/09/18 18:37:49;;;;;;;4.53;1.40;;;;;11.00;101263.00;;;;13029528;22;20707;-76
2022/09/18 18:42:50;;;;;;;3.63;1.17;;;;;11.10;101261.00;;;;13032764;22;20198;-75
2022/09/18 18:47:57;;;;;;;7.03;1.50;;;;;11.10;101264.00;;;;13083675;22;20829;-75
2022/09/18 18:53:01;;;;;;;7.83;1.47;;;;;11.00;101267.00;;;;13036237;22;20685;-75
2022/09/18 18:58:02;;;;;;;5.13;1.30;;;;;11.00;101270.00;;;;13082695;22;20167;-75
2022/09/18 19:03:04;;;;;;;2.00;0.80;;;;;11.00;101279.00;;;;13060077;22;20183;-74
2022/09/18 19:08:05;;;;;;;5.27;0.97;;;;;11.00;101274.00;;;;13031801;22;20652;-74
2022/09/18 19:13:07;;;;;;;7.60;1.20;;;;;11.10;101275.00;;;;13036420;22;20634;-74
2022/09/18 19:18:08;;;;;;;8.03;1.20;;;;;11.10;101280.00;;;;13035755;22;20183;-75
2022/09/18 19:23:12;;;;;;;4.30;1.33;;;;;11.10;101278.00;;;;13038275;22;20204;-75
2022/09/18 19:28:23;;;;;;;8.67;2.13;;;;;11.10;101280.00;;;;13081296;22;20168;-75
2022/09/18 19:33:33;;;;;;;8.03;1.50;;;;;11.10;101291.00;;;;13035593;22;20275;-75
2022/09/18 19:38:35;;;;;;;3.40;1.50;;;;;11.10;101280.00;;;;13057265;22;20164;-74
2022/09/18 19:43:37;;;;;;;7.37;1.43;;;;;11.10;101303.00;;;;13033144;22;20222;-74
2022/09/18 19:48:41;;;;;;;7.50;1.93;;;;;11.10;101315.00;;;;13081535;22;20494;-75
2022/09/18 19:53:43;;;;;;;5.60;1.83;;;;;11.10;101317.00;;;;13030056;22;20160;-75
2022/09/18 19:58:48;;;;;;;5.47;1.70;;;;;11.10;101308.00;;;;13010637;22;20202;-75
2022/09/18 20:03:53;;;;;;;4.50;1.40;;;;;11.10;101313.00;;;;13036494;22;20187;-74
2022/09/18 20:08:55;;;;;;;6.20;1.30;;;;;11.00;101317.00;;;;13059840;22;20518;-74
2022/09/18 20:13:56;;;;;;;5.90;1.57;;;;;11.00;101313.00;;;;13010023;22;20278;-74
2022/09/18 20:18:57;;;;;;;8.50;1.90;;;;;10.80;101324.00;;;;13056814;22;20301;-74
2022/09/18 20:23:58;;;;;;;4.07;1.63;;;;;10.70;101331.00;;;;13110598;22;20195;-74
2022/09/18 20:29:00;;;;;;;5.00;1.50;;;;;10.60;101328.00;;;;12982832;22;20199;-74
2022/09/18 20:34:03;;;;;;;4.07;1.40;;;;;10.60;101323.00;;;;12985636;22;20228;-74
2022/09/18 20:39:04;;;;;;;12.50;1.80;;;;;10.50;101329.00;;;;13083391;22;20163;-74
2022/09/18 20:44:05;;;;;;;8.20;1.50;;;;;10.40;101332.00;;;;13086241;22;20232;-74
2022/09/18 20:49:07;;;;;;;3.87;1.37;;;;;10.30;101338.00;;;;12983628;22;20630;-74
2022/09/18 20:54:11;;;;;;;10.43;2.23;;;;;10.20;101341.00;;;;13039258;22;20179;-75
2022/09/18 20:59:15;;;;;;;4.53;1.50;;;;;10.20;101336.00;;;;13010647;22;20171;-74
2022/09/18 21:04:18;;;;;;;10.33;1.80;;;;;10.10;101342.00;;;;13086808;22;20184;-75
2022/09/18 21:09:19;;;;;;;6.27;1.60;;;;;10.10;101333.00;;;;13060523;22;20187;-75
2022/09/18 21:14:22;;;;;;;7.97;2.10;;;;;10.10;101362.00;;;;13062635;22;20166;-75
2022/09/18 21:19:25;;;;;;;4.07;2.13;;;;;10.10;101351.00;;;;13063201;22;20172;-74
2022/09/18 21:24:27;;;;;;;8.30;2.33;;;;;10.10;101357.00;;;;13014348;22;20195;-74
2022/09/18 21:29:28;;;;;;;9.10;2.80;;;;;10.00;101356.00;;;;13038928;22;21020;-74
2022/09/18 21:34:32;;;;;;;7.07;2.57;;;;;10.00;101358.00;;;;13039327;22;20227;-74
2022/09/18 21:39:34;;;;;;;8.47;3.10;;;;;10.00;101359.00;;;;12989346;22;20178;-74
2022/09/18 21:44:36;;;;;;;4.87;2.70;;;;;9.90;101363.00;;;;13084953;22;20183;-74
2022/09/18 21:49:37;;;;;;;11.33;2.97;;;;;9.90;101366.00;;;;13087564;22;20230;-74
2022/09/18 21:54:39;;;;;;;9.43;3.37;;;;;9.90;101370.00;;;;13087805;22;20167;-74
2022/09/18 21:59:40;;;;;;;11.80;3.40;;;;;9.90;101373.00;;;;13087406;22;20250;-74
2022/09/18 22:04:44;;;;;;;8.13;3.17;;;;;9.90;101373.00;;;;13039943;22;20203;-74
2022/09/18 22:09:45;;;;;;;8.63;3.20;;;;;9.90;101370.00;;;;13014476;22;20187;-74
2022/09/18 22:14:47;;;;;;;7.07;3.30;;;;;9.80;101381.00;;;;13060617;22;20610;-74
2022/09/18 22:19:49;;;;;;;8.80;3.97;;;;;9.80;101383.00;;;;13014024;22;20175;-74
2022/09/18 22:24:50;;;;;;;8.33;3.13;;;;;9.70;101391.00;;;;13038000;22;20191;-74
2022/09/18 22:29:51;;;;;;;10.40;3.90;;;;;9.70;101392.00;;;;13064200;22;20254;-75
2022/09/18 22:34:53;;;;;;;8.63;3.97;;;;;9.70;101397.00;;;;13060680;22;20238;-74
2022/09/18 22:39:54;;;;;;;7.70;3.07;;;;;9.60;101399.00;;;;13058442;22;20168;-74
2022/09/18 22:44:55;;;;;;;15.70;3.20;;;;;9.60;101407.00;;;;13087203;22;20645;-74
2022/09/18 22:49:57;;;;;;;12.73;3.23;;;;;9.50;101409.00;;;;13012128;22;20812;-74
2022/09/18 22:54:59;;;;;;;7.93;3.17;;;;;9.40;101412.00;;;;13013785;22;20172;-74
2022/09/18 23:00:00;;;;;;;9.77;3.10;;;;;9.30;101413.00;;;;13085605;22;20160;-74
2022/09/18 23:05:02;;;;;;;8.20;2.83;;;;;9.20;101420.00;;;;13086668;22;20187;-74
2022/09/18 23:10:03;;;;;;;8.30;2.77;;;;;9.10;101417.00;;;;13039245;22;20198;-74
2022/09/18 23:15:05;;;;;;;11.43;3.13;;;;;9.00;101409.00;;;;13013461;22;20213;-74
2022/09/18 23:20:06;;;;;;;11.53;2.83;;;;;8.90;101404.00;;;;13059888;22;20163;-74
2022/09/18 23:25:08;;;;;;;13.37;2.67;;;;;8.90;101416.00;;;;13059138;22;20769;-74
2022/09/18 23:30:10;;;;;;;8.73;3.17;;;;;8.90;101406.00;;;;13012533;22;20262;-74
2022/09/18 23:35:11;;;;;;;6.10;2.33;;;;;8.90;101412.00;;;;13083576;22;20167;-74
2022/09/18 23:40:12;;;;;;;14.90;3.20;;;;;8.90;101433.00;;;;13061569;22;20561;-74
2022/09/18 23:45:14;;;;;;;8.33;2.87;;;;;8.80;101423.00;;;;13015508;22;20653;-74
2022/09/18 23:50:15;;;;;;;8.13;2.83;;;;;8.80;101420.00;;;;13062861;22;20418;-74
2022/09/18 23:55:17;;;;;;;9.47;2.70;;;;;8.80;101424.00;;;;13015902;22;20172;-74
